MHTG/TGU METAR and TAF weather

Enter ICAO airport designator
Station Type Date Time Source
MHTG METAR 2021/06/24 06:00 UTC NOAA

MHTG 240600Z 18003KT CAVOK 19/17 Q1021 A3015 NOSIG


Station Type Date Time Source
MHTG Decoded METAR 2021/06/24 06:00 UTC NOAA

Tegucigalpa, Honduras (MHTG) 14-03N 087-13W 1007M
Jun 24, 2021 - 02:00 AM EDT / 2021.06.24 0600 UTC
Wind: from the S (180 degrees) at 3 MPH (3 KT):0
Visibility: greater than 7 mile(s):0
Temperature: 66 F (19 C)
Dew Point: 62 F (17 C)
Relative Humidity: 88%
Pressure (altimeter): 30.15 in. Hg (1020 hPa)
ob: MHTG 240600Z 18003KT CAVOK 19/17 Q1021 A3015 NOSIG
cycle: 6

Station Type Date Time Source
MHTG TAF 2021/06/24 06:57 UTC NOAA

TAF MHTG 240300Z 2406/2506 01004KT 9999 FEW028 TX29/2421Z TN17/2412Z
BECMG 2410/2412 00000KT BKN026
BECMG 2418/2420 08008KT SCT030TCU PROB30
TEMPO 2423/2502 7000 TSVCSH SCT030TCU FEW032CB
BECMG 2502/2504 9999 NSW SCT028 SCT080

Example: see airport list